sensor_id;sensor_type;location;lat;lon;timestamp;pressure;altitude;pressure_sealevel;temperature;humidity
32761;BME280;19126;47.472;7.850;2024-03-22T00:02:08;74915.84;;;-146.25;83.71
32761;BME280;19126;47.472;7.850;2024-03-22T00:04:35;74925.88;;;-146.25;83.57
32761;BME280;19126;47.472;7.850;2024-03-22T00:07:02;74931.91;;;-146.25;83.00
32761;BME280;19126;47.472;7.850;2024-03-22T00:09:30;74945.94;;;-146.25;82.75
32761;BME280;19126;47.472;7.850;2024-03-22T00:11:56;74943.94;;;-146.25;82.36
32761;BME280;19126;47.472;7.850;2024-03-22T00:14:23;74945.94;;;-146.25;81.73
32761;BME280;19126;47.472;7.850;2024-03-22T00:16:51;74945.94;;;-146.25;80.76
32761;BME280;19126;47.472;7.850;2024-03-22T00:19:18;74945.94;;;-146.25;80.79
32761;BME280;19126;47.472;7.850;2024-03-22T00:21:44;74957.97;;;-146.25;80.41
32761;BME280;19126;47.472;7.850;2024-03-22T00:24:11;74955.97;;;-146.25;80.09
32761;BME280;19126;47.472;7.850;2024-03-22T00:26:37;74963.97;;;-146.25;79.99
32761;BME280;19126;47.472;7.850;2024-03-22T00:29:05;74959.97;;;-146.25;79.94
32761;BME280;19126;47.472;7.850;2024-03-22T00:31:31;74968.00;;;-146.25;80.46
32761;BME280;19126;47.472;7.850;2024-03-22T00:33:59;74972.00;;;-146.25;80.62
32761;BME280;19126;47.472;7.850;2024-03-22T00:36:26;74980.00;;;-146.25;80.64
32761;BME280;19126;47.472;7.850;2024-03-22T00:38:53;74988.03;;;-146.25;80.59
32761;BME280;19126;47.472;7.850;2024-03-22T00:41:19;74994.06;;;-146.25;80.71
32761;BME280;19126;47.472;7.850;2024-03-22T00:43:46;75004.06;;;-146.25;80.81
32761;BME280;19126;47.472;7.850;2024-03-22T00:46:12;75006.09;;;-146.25;81.09
32761;BME280;19126;47.472;7.850;2024-03-22T00:48:39;75010.09;;;-146.25;81.15
32761;BME280;19126;47.472;7.850;2024-03-22T00:51:07;75022.13;;;-146.25;81.29
32761;BME280;19126;47.472;7.850;2024-03-22T00:53:34;75024.13;;;-146.25;81.14
32761;BME280;19126;47.472;7.850;2024-03-22T00:56:00;75022.13;;;-146.25;81.56
32761;BME280;19126;47.472;7.850;2024-03-22T00:58:28;75028.13;;;-146.25;81.06
32761;BME280;19126;47.472;7.850;2024-03-22T01:00:54;75034.16;;;-146.25;81.09
32761;BME280;19126;47.472;7.850;2024-03-22T01:03:21;75042.16;;;-146.25;81.16
32761;BME280;19126;47.472;7.850;2024-03-22T01:05:48;75046.19;;;-146.25;81.32
32761;BME280;19126;47.472;7.850;2024-03-22T01:08:16;75040.16;;;-146.25;81.23
32761;BME280;19126;47.472;7.850;2024-03-22T01:10:42;75054.19;;;-146.25;81.49
32761;BME280;19126;47.472;7.850;2024-03-22T01:13:10;75060.22;;;-146.25;81.13
32761;BME280;19126;47.472;7.850;2024-03-22T01:15:36;75064.22;;;-146.25;80.86
32761;BME280;19126;47.472;7.850;2024-03-22T01:18:04;75064.22;;;-146.25;80.41
32761;BME280;19126;47.472;7.850;2024-03-22T01:20:30;75068.22;;;-146.25;79.77
32761;BME280;19126;47.472;7.850;2024-03-22T01:23:00;75070.25;;;-146.25;79.12
32761;BME280;19126;47.472;7.850;2024-03-22T01:25:28;75072.25;;;-146.25;79.12
32761;BME280;19126;47.472;7.850;2024-03-22T01:27:56;75074.25;;;-146.25;78.88
32761;BME280;19126;47.472;7.850;2024-03-22T01:30:22;75090.28;;;-146.25;78.59
32761;BME280;19126;47.472;7.850;2024-03-22T01:32:51;75092.28;;;-146.25;78.05
32761;BME280;19126;47.472;7.850;2024-03-22T01:35:17;75076.25;;;-146.25;77.35
32761;BME280;19126;47.472;7.850;2024-03-22T01:37:44;75072.25;;;-146.25;76.39
32761;BME280;19126;47.472;7.850;2024-03-22T01:40:13;75084.28;;;-146.25;76.20
32761;BME280;19126;47.472;7.850;2024-03-22T01:42:41;75086.28;;;-146.25;75.82
32761;BME280;19126;47.472;7.850;2024-03-22T01:45:12;75086.28;;;-146.25;75.46
32761;BME280;19126;47.472;7.850;2024-03-22T01:47:41;75088.28;;;-146.25;76.09
32761;BME280;19126;47.472;7.850;2024-03-22T01:50:08;75100.31;;;-146.25;76.37
32761;BME280;19126;47.472;7.850;2024-03-22T01:52:38;75106.31;;;-146.25;75.80
32761;BME280;19126;47.472;7.850;2024-03-22T01:55:06;75110.34;;;-146.25;75.29
32761;BME280;19126;47.472;7.850;2024-03-22T01:57:34;75116.34;;;-146.25;75.40
32761;BME280;19126;47.472;7.850;2024-03-22T02:00:04;75118.34;;;-146.25;74.86
32761;BME280;19126;47.472;7.850;2024-03-22T02:02:32;75122.38;;;-146.25;74.62
32761;BME280;19126;47.472;7.850;2024-03-22T02:04:58;75124.38;;;-146.25;75.03
32761;BME280;19126;47.472;7.850;2024-03-22T02:07:28;75124.38;;;-146.25;74.59
32761;BME280;19126;47.472;7.850;2024-03-22T02:09:55;75132.41;;;-146.25;74.64
32761;BME280;19126;47.472;7.850;2024-03-22T02:12:23;75134.41;;;-146.25;74.71
32761;BME280;19126;47.472;7.850;2024-03-22T02:14:50;75134.41;;;-146.25;74.79
32761;BME280;19126;47.472;7.850;2024-03-22T02:17:19;75144.44;;;-146.25;75.18
32761;BME280;19126;47.472;7.850;2024-03-22T02:19:45;75142.41;;;-146.25;75.25
32761;BME280;19126;47.472;7.850;2024-03-22T02:22:12;75144.44;;;-146.25;74.46
32761;BME280;19126;47.472;7.850;2024-03-22T02:24:40;75144.44;;;-146.25;74.66
32761;BME280;19126;47.472;7.850;2024-03-22T02:27:07;75146.44;;;-146.25;74.32
32761;BME280;19126;47.472;7.850;2024-03-22T02:29:33;75148.44;;;-146.25;74.66
32761;BME280;19126;47.472;7.850;2024-03-22T02:32:00;75150.44;;;-146.25;74.81
32761;BME280;19126;47.472;7.850;2024-03-22T02:34:26;75154.44;;;-146.25;74.90
32761;BME280;19126;47.472;7.850;2024-03-22T02:36:54;75154.44;;;-146.25;74.90
32761;BME280;19126;47.472;7.850;2024-03-22T02:39:20;75156.44;;;-146.25;75.03
32761;BME280;19126;47.472;7.850;2024-03-22T02:41:48;75154.44;;;-146.25;74.67
32761;BME280;19126;47.472;7.850;2024-03-22T02:44:14;75154.44;;;-146.25;74.86
32761;BME280;19126;47.472;7.850;2024-03-22T02:46:41;75154.44;;;-146.25;74.03
32761;BME280;19126;47.472;7.850;2024-03-22T02:49:08;75154.44;;;-146.25;73.55
32761;BME280;19126;47.472;7.850;2024-03-22T02:51:35;75152.44;;;-146.25;73.50
32761;BME280;19126;47.472;7.850;2024-03-22T02:54:01;75150.44;;;-146.25;73.52
32761;BME280;19126;47.472;7.850;2024-03-22T02:56:28;75154.44;;;-146.25;73.06
32761;BME280;19126;47.472;7.850;2024-03-22T02:58:56;75156.44;;;-146.25;73.71
32761;BME280;19126;47.472;7.850;2024-03-22T03:01:23;75158.47;;;-146.25;72.82
32761;BME280;19126;47.472;7.850;2024-03-22T03:03:49;75144.44;;;-146.25;72.54
32761;BME280;19126;47.472;7.850;2024-03-22T03:06:16;75148.44;;;-146.25;71.14
32761;BME280;19126;47.472;7.850;2024-03-22T03:08:46;75148.44;;;-146.25;70.60
32761;BME280;19126;47.472;7.850;2024-03-22T03:11:15;75150.44;;;-146.25;70.26
32761;BME280;19126;47.472;7.850;2024-03-22T03:13:41;75148.44;;;-146.25;69.74
32761;BME280;19126;47.472;7.850;2024-03-22T03:16:10;75152.44;;;-146.25;69.68
32761;BME280;19126;47.472;7.850;2024-03-22T03:18:39;75148.44;;;-146.25;69.26
32761;BME280;19126;47.472;7.850;2024-03-22T03:21:07;75148.44;;;-146.25;69.06
32761;BME280;19126;47.472;7.850;2024-03-22T03:23:35;75144.44;;;-146.25;69.08
32761;BME280;19126;47.472;7.850;2024-03-22T03:26:02;75140.41;;;-146.25;67.79
32761;BME280;19126;47.472;7.850;2024-03-22T03:28:28;75138.41;;;-146.25;67.04
32761;BME280;19126;47.472;7.850;2024-03-22T03:30:55;75140.41;;;-146.25;66.30
32761;BME280;19126;47.472;7.850;2024-03-22T03:33:23;75140.41;;;-146.25;66.32
32761;BME280;19126;47.472;7.850;2024-03-22T03:35:50;75132.41;;;-146.25;65.66
32761;BME280;19126;47.472;7.850;2024-03-22T03:38:16;75122.38;;;-146.25;64.68
32761;BME280;19126;47.472;7.850;2024-03-22T03:40:43;75112.34;;;-146.25;63.33
32761;BME280;19126;47.472;7.850;2024-03-22T03:43:10;75108.34;;;-146.25;62.54
32761;BME280;19126;47.472;7.850;2024-03-22T03:45:37;75104.31;;;-146.25;61.75
32761;BME280;19126;47.472;7.850;2024-03-22T03:48:04;75102.31;;;-146.25;61.37
32761;BME280;19126;47.472;7.850;2024-03-22T03:50:32;75096.31;;;-146.25;60.33
32761;BME280;19126;47.472;7.850;2024-03-22T03:52:59;75084.28;;;-146.25;59.61
32761;BME280;19126;47.472;7.850;2024-03-22T03:55:26;75076.25;;;-146.25;58.82
32761;BME280;19126;47.472;7.850;2024-03-22T03:57:52;75064.22;;;-146.25;57.85
32761;BME280;19126;47.472;7.850;2024-03-22T04:00:20;75056.22;;;-146.25;56.64
32761;BME280;19126;47.472;7.850;2024-03-22T04:02:49;75054.19;;;-146.25;55.19
32761;BME280;19126;47.472;7.850;2024-03-22T04:05:16;75040.16;;;-146.25;54.61
32761;BME280;19126;47.472;7.850;2024-03-22T04:07:47;75044.19;;;-146.25;54.07
32761;BME280;19126;47.472;7.850;2024-03-22T04:10:14;75040.16;;;-146.25;52.63
32761;BME280;19126;47.472;7.850;2024-03-22T04:12:40;75040.16;;;-146.25;52.41
32761;BME280;19126;47.472;7.850;2024-03-22T04:15:08;75034.16;;;-146.25;51.39
32761;BME280;19126;47.472;7.850;2024-03-22T04:17:35;75028.13;;;-146.25;50.94
32761;BME280;19126;47.472;7.850;2024-03-22T04:20:02;75026.13;;;-146.25;50.20
32761;BME280;19126;47.472;7.850;2024-03-22T04:22:29;75020.13;;;-146.25;49.04
32761;BME280;19126;47.472;7.850;2024-03-22T04:24:58;75008.09;;;-146.25;48.76
32761;BME280;19126;47.472;7.850;2024-03-22T04:27:25;75002.06;;;-146.25;48.25
32761;BME280;19126;47.472;7.850;2024-03-22T04:29:52;75002.06;;;-146.25;47.50
32761;BME280;19126;47.472;7.850;2024-03-22T04:32:18;75006.09;;;-146.25;47.25
32761;BME280;19126;47.472;7.850;2024-03-22T04:34:45;75002.06;;;-146.25;47.01
32761;BME280;19126;47.472;7.850;2024-03-22T04:37:11;74998.06;;;-146.25;46.63
32761;BME280;19126;47.472;7.850;2024-03-22T04:39:40;74996.06;;;-146.25;45.98
32761;BME280;19126;47.472;7.850;2024-03-22T04:42:08;74994.06;;;-146.25;45.96
32761;BME280;19126;47.472;7.850;2024-03-22T04:44:35;74990.03;;;-146.25;45.58
32761;BME280;19126;47.472;7.850;2024-03-22T04:47:02;74978.00;;;-146.25;44.91
32761;BME280;19126;47.472;7.850;2024-03-22T04:49:29;74978.00;;;-146.25;44.83
32761;BME280;19126;47.472;7.850;2024-03-22T04:51:55;74972.00;;;-146.25;44.14
32761;BME280;19126;47.472;7.850;2024-03-22T04:54:22;74970.00;;;-146.25;43.95
32761;BME280;19126;47.472;7.850;2024-03-22T04:56:50;74963.97;;;-146.25;44.02
32761;BME280;19126;47.472;7.850;2024-03-22T04:59:18;74963.97;;;-146.25;43.52
32761;BME280;19126;47.472;7.850;2024-03-22T05:01:44;74963.97;;;-146.25;43.67
32761;BME280;19126;47.472;7.850;2024-03-22T05:04:11;74955.97;;;-146.25;43.51
32761;BME280;19126;47.472;7.850;2024-03-22T05:06:38;74955.97;;;-146.25;42.97
32761;BME280;19126;47.472;7.850;2024-03-22T05:09:05;74951.94;;;-146.25;42.87
32761;BME280;19126;47.472;7.850;2024-03-22T05:11:31;74947.94;;;-146.25;42.27
32761;BME280;19126;47.472;7.850;2024-03-22T05:13:58;74943.94;;;-146.25;41.94
32761;BME280;19126;47.472;7.850;2024-03-22T05:16:26;74939.91;;;-146.25;41.51
32761;BME280;19126;47.472;7.850;2024-03-22T05:18:53;74933.91;;;-146.25;41.42
32761;BME280;19126;47.472;7.850;2024-03-22T05:21:19;74929.91;;;-146.25;41.30
32761;BME280;19126;47.472;7.850;2024-03-22T05:23:46;74929.91;;;-146.25;40.84
32761;BME280;19126;47.472;7.850;2024-03-22T05:26:12;74917.88;;;-146.25;40.72
32761;BME280;19126;47.472;7.850;2024-03-22T05:28:40;74917.88;;;-146.25;40.16
32761;BME280;19126;47.472;7.850;2024-03-22T05:31:06;74917.88;;;-146.25;40.04
32761;BME280;19126;47.472;7.850;2024-03-22T05:33:35;74915.84;;;-146.25;40.00
32761;BME280;19126;47.472;7.850;2024-03-22T05:36:01;74903.84;;;-146.25;39.91
32761;BME280;19126;47.472;7.850;2024-03-22T05:38:28;74897.81;;;-146.25;39.62
32761;BME280;19126;47.472;7.850;2024-03-22T05:40:54;74889.78;;;-146.25;39.72
32761;BME280;19126;47.472;7.850;2024-03-22T05:43:21;74883.78;;;-146.25;39.33
32761;BME280;19126;47.472;7.850;2024-03-22T05:45:48;74879.78;;;-146.25;39.35
32761;BME280;19126;47.472;7.850;2024-03-22T05:48:15;74871.75;;;-146.25;39.71
32761;BME280;19126;47.472;7.850;2024-03-22T05:50:44;74869.75;;;-146.25;39.80
32761;BME280;19126;47.472;7.850;2024-03-22T05:53:10;74865.75;;;-146.25;39.85
32761;BME280;19126;47.472;7.850;2024-03-22T05:55:37;74861.72;;;-146.25;40.00
32761;BME280;19126;47.472;7.850;2024-03-22T05:58:04;74855.72;;;-146.25;40.40
32761;BME280;19126;47.472;7.850;2024-03-22T06:00:31;74845.69;;;-146.25;40.38
32761;BME280;19126;47.472;7.850;2024-03-22T06:02:57;74831.66;;;-146.25;40.05
32761;BME280;19126;47.472;7.850;2024-03-22T06:05:25;74829.66;;;-146.25;40.16
32761;BME280;19126;47.472;7.850;2024-03-22T06:07:53;74815.63;;;-146.25;40.07
32761;BME280;19126;47.472;7.850;2024-03-22T06:10:20;74811.59;;;-146.25;39.85
32761;BME280;19126;47.472;7.850;2024-03-22T06:12:46;74807.59;;;-146.25;39.61
32761;BME280;19126;47.472;7.850;2024-03-22T06:15:14;74799.56;;;-146.25;39.58
32761;BME280;19126;47.472;7.850;2024-03-22T06:17:40;74793.56;;;-146.25;39.75
32761;BME280;19126;47.472;7.850;2024-03-22T06:20:10;74785.53;;;-146.25;39.63
32761;BME280;19126;47.472;7.850;2024-03-22T06:22:37;74779.53;;;-146.25;39.43
32761;BME280;19126;47.472;7.850;2024-03-22T06:25:06;74765.50;;;-146.25;39.51
32761;BME280;19126;47.472;7.850;2024-03-22T06:27:33;74747.44;;;-146.25;39.42
32761;BME280;19126;47.472;7.850;2024-03-22T06:30:00;74733.41;;;-146.25;39.55
32761;BME280;19126;47.472;7.850;2024-03-22T06:32:26;74725.41;;;-146.25;39.05
32761;BME280;19126;47.472;7.850;2024-03-22T06:34:53;74695.31;;;-146.25;39.60
32761;BME280;19126;47.472;7.850;2024-03-22T06:37:19;74681.28;;;-146.25;40.43
32761;BME280;19126;47.472;7.850;2024-03-22T06:39:46;74679.28;;;-146.25;40.67
32761;BME280;19126;47.472;7.850;2024-03-22T06:42:14;74661.25;;;-146.25;40.93
32761;BME280;19126;47.472;7.850;2024-03-22T06:44:42;74641.19;;;-146.25;42.13
32761;BME280;19126;47.472;7.850;2024-03-22T06:47:08;74633.19;;;-146.25;43.23
32761;BME280;19126;47.472;7.850;2024-03-22T06:49:35;74617.13;;;-146.25;44.04
32761;BME280;19126;47.472;7.850;2024-03-22T06:52:02;74599.09;;;-146.25;45.58
32761;BME280;19126;47.472;7.850;2024-03-22T06:54:29;74573.03;;;-146.25;47.53
32761;BME280;19126;47.472;7.850;2024-03-22T06:56:55;74555.00;;;-146.25;50.51
32761;BME280;19126;47.472;7.850;2024-03-22T06:59:24;74514.91;;;-146.25;54.02
32761;BME280;19126;47.472;7.850;2024-03-22T07:01:50;74456.75;;;-146.25;55.60
32761;BME280;19126;47.472;7.850;2024-03-22T07:04:17;74418.69;;;-146.25;62.25
32761;BME280;19126;47.472;7.850;2024-03-22T07:06:43;74404.66;;;-146.25;70.59
32761;BME280;19126;47.472;7.850;2024-03-22T07:09:10;74386.59;;;-146.25;77.70
32761;BME280;19126;47.472;7.850;2024-03-22T07:11:37;74384.59;;;-146.25;82.02
32761;BME280;19126;47.472;7.850;2024-03-22T07:14:04;74380.59;;;-146.25;86.35
32761;BME280;19126;47.472;7.850;2024-03-22T07:16:32;74374.56;;;-146.25;87.39
32761;BME280;19126;47.472;7.850;2024-03-22T07:18:59;74374.56;;;-146.25;88.09
32761;BME280;19126;47.472;7.850;2024-03-22T07:21:26;74362.53;;;-146.25;87.39
32761;BME280;19126;47.472;7.850;2024-03-22T07:23:52;74356.53;;;-146.25;87.60
32761;BME280;19126;47.472;7.850;2024-03-22T07:26:19;74344.50;;;-146.25;87.41
32761;BME280;19126;47.472;7.850;2024-03-22T07:28:45;74338.50;;;-146.25;87.14
32761;BME280;19126;47.472;7.850;2024-03-22T07:31:13;74326.47;;;-146.25;86.68
32761;BME280;19126;47.472;7.850;2024-03-22T07:33:41;74312.44;;;-146.25;86.77
32761;BME280;19126;47.472;7.850;2024-03-22T07:36:08;74286.38;;;-146.25;87.13
32761;BME280;19126;47.472;7.850;2024-03-22T07:38:34;74268.31;;;-146.25;87.02
32761;BME280;19126;47.472;7.850;2024-03-22T07:41:02;74248.28;;;-146.25;87.04
32761;BME280;19126;47.472;7.850;2024-03-22T07:43:28;74220.22;;;-146.25;86.75
32761;BME280;19126;47.472;7.850;2024-03-22T07:45:55;74214.22;;;-146.25;85.41
32761;BME280;19126;47.472;7.850;2024-03-22T07:48:21;74204.19;;;-146.25;84.32
32761;BME280;19126;47.472;7.850;2024-03-22T07:50:57;74182.13;;;-146.25;83.97
32761;BME280;19126;47.472;7.850;2024-03-22T07:53:24;74164.09;;;-146.25;82.85
32761;BME280;19126;47.472;7.850;2024-03-22T07:55:51;74154.06;;;-146.25;81.37
32761;BME280;19126;47.472;7.850;2024-03-22T07:58:17;74134.03;;;-146.25;81.64
32761;BME280;19126;47.472;7.850;2024-03-22T08:00:45;74109.97;;;-146.25;81.37
32761;BME280;19126;47.472;7.850;2024-03-22T08:03:15;74079.91;;;-146.25;80.68
32761;BME280;19126;47.472;7.850;2024-03-22T08:05:43;74059.84;;;-146.25;80.67
32761;BME280;19126;47.472;7.850;2024-03-22T08:08:10;74025.78;;;-146.25;79.98
32761;BME280;19126;47.472;7.850;2024-03-22T08:10:37;74011.75;;;-146.25;78.01
32761;BME280;19126;47.472;7.850;2024-03-22T08:13:03;73995.72;;;-146.25;78.53
32761;BME280;19126;47.472;7.850;2024-03-22T08:15:31;73985.69;;;-146.25;76.24
32761;BME280;19126;47.472;7.850;2024-03-22T08:17:57;73969.66;;;-146.25;74.98
32761;BME280;19126;47.472;7.850;2024-03-22T08:20:24;73965.66;;;-146.25;73.56
32761;BME280;19126;47.472;7.850;2024-03-22T08:22:50;73949.63;;;-146.25;73.52
32761;BME280;19126;47.472;7.850;2024-03-22T08:25:19;73947.59;;;-146.25;73.81
32761;BME280;19126;47.472;7.850;2024-03-22T08:27:46;73937.59;;;-146.25;71.31
32761;BME280;19126;47.472;7.850;2024-03-22T08:30:14;73945.59;;;-146.25;71.08
32761;BME280;19126;47.472;7.850;2024-03-22T08:32:40;73943.59;;;-146.25;69.94
32761;BME280;19126;47.472;7.850;2024-03-22T08:35:08;73909.53;;;-146.25;68.04
32761;BME280;19126;47.472;7.850;2024-03-22T08:37:34;73853.41;;;-146.25;71.79
32761;BME280;19126;47.472;7.850;2024-03-22T08:40:01;73833.34;;;-146.25;67.79
32761;BME280;19126;47.472;7.850;2024-03-22T08:42:31;73791.28;;;-146.25;63.50
32761;BME280;19126;47.472;7.850;2024-03-22T08:44:59;73753.19;;;-146.25;62.91
32761;BME280;19126;47.472;7.850;2024-03-22T08:47:26;73709.09;;;-146.25;61.48
32761;BME280;19126;47.472;7.850;2024-03-22T08:49:53;73689.03;;;-146.25;60.36
32761;BME280;19126;47.472;7.850;2024-03-22T08:52:22;73667.00;;;-146.25;59.17
32761;BME280;19126;47.472;7.850;2024-03-22T08:54:49;73640.94;;;-146.25;58.91
32761;BME280;19126;47.472;7.850;2024-03-22T08:57:17;73600.84;;;-146.25;55.23
32761;BME280;19126;47.472;7.850;2024-03-22T08:59:44;73566.78;;;-146.25;55.13
32761;BME280;19126;47.472;7.850;2024-03-22T09:02:11;73544.75;;;-146.25;53.28
32761;BME280;19126;47.472;7.850;2024-03-22T09:04:38;73514.69;;;-146.25;53.10
32761;BME280;19126;47.472;7.850;2024-03-22T09:07:05;73496.63;;;-146.25;51.49
32761;BME280;19126;47.472;7.850;2024-03-22T09:09:31;73482.63;;;-146.25;50.69
32761;BME280;19126;47.472;7.850;2024-03-22T09:11:58;73454.56;;;-146.25;48.31
32761;BME280;19126;47.472;7.850;2024-03-22T09:14:25;73440.53;;;-146.25;46.52
32761;BME280;19126;47.472;7.850;2024-03-22T09:16:53;73446.53;;;-146.25;45.73
32761;BME280;19126;47.472;7.850;2024-03-22T09:19:19;73424.50;;;-146.25;45.77
32761;BME280;19126;47.472;7.850;2024-03-22T09:21:47;73378.41;;;-146.25;44.31
32761;BME280;19126;47.472;7.850;2024-03-22T09:24:13;73342.31;;;-146.25;43.47
32761;BME280;19126;47.472;7.850;2024-03-22T09:26:40;73330.28;;;-146.25;42.87
32761;BME280;19126;47.472;7.850;2024-03-22T09:29:06;73326.28;;;-146.25;42.00
32761;BME280;19126;47.472;7.850;2024-03-22T09:31:33;73358.34;;;-146.25;40.91
32761;BME280;19126;47.472;7.850;2024-03-22T09:34:01;73326.28;;;-146.25;41.49
32761;BME280;19126;47.472;7.850;2024-03-22T09:36:28;73300.22;;;-146.25;42.29
32761;BME280;19126;47.472;7.850;2024-03-22T09:38:57;73292.22;;;-146.25;40.94
32761;BME280;19126;47.472;7.850;2024-03-22T09:41:25;73242.13;;;-146.25;41.34
32761;BME280;19126;47.472;7.850;2024-03-22T09:43:52;73222.06;;;-146.25;39.86
32761;BME280;19126;47.472;7.850;2024-03-22T09:46:20;73220.06;;;-146.25;39.28
32761;BME280;19126;47.472;7.850;2024-03-22T09:48:48;73198.03;;;-146.25;38.90
32761;BME280;19126;47.472;7.850;2024-03-22T09:51:18;73149.94;;;-146.25;40.66
32761;BME280;19126;47.472;7.850;2024-03-22T09:53:44;73119.88;;;-146.25;39.85
32761;BME280;19126;47.472;7.850;2024-03-22T09:56:14;73117.88;;;-146.25;36.79
32761;BME280;19126;47.472;7.850;2024-03-22T09:58:41;73115.88;;;-146.25;37.46
32761;BME280;19126;47.472;7.850;2024-03-22T10:01:09;73117.88;;;-146.25;37.89
32761;BME280;19126;47.472;7.850;2024-03-22T10:03:35;73089.81;;;-146.25;38.53
32761;BME280;19126;47.472;7.850;2024-03-22T10:06:04;73101.84;;;-146.25;37.99
32761;BME280;19126;47.472;7.850;2024-03-22T10:08:31;73123.88;;;-146.25;37.74
32761;BME280;19126;47.472;7.850;2024-03-22T10:11:02;73117.88;;;-146.25;38.57
32761;BME280;19126;47.472;7.850;2024-03-22T10:13:28;73085.81;;;-146.25;37.21
32761;BME280;19126;47.472;7.850;2024-03-22T10:15:57;73089.81;;;-146.25;36.40
32761;BME280;19126;47.472;7.850;2024-03-22T10:18:23;73063.75;;;-146.25;35.82
32761;BME280;19126;47.472;7.850;2024-03-22T10:21:00;73045.72;;;-146.25;36.03
32761;BME280;19126;47.472;7.850;2024-03-22T10:23:27;72997.63;;;-146.25;37.41
32761;BME280;19126;47.472;7.850;2024-03-22T10:25:56;72973.59;;;-146.25;39.08
32761;BME280;19126;47.472;7.850;2024-03-22T10:28:23;72937.50;;;-146.25;38.72
32761;BME280;19126;47.472;7.850;2024-03-22T10:30:52;72901.44;;;-146.25;37.73
32761;BME280;19126;47.472;7.850;2024-03-22T10:33:19;72923.47;;;-146.25;36.21
32761;BME280;19126;47.472;7.850;2024-03-22T10:35:51;72965.56;;;-146.25;37.74
32761;BME280;19126;47.472;7.850;2024-03-22T10:38:19;72949.53;;;-146.25;39.00
32761;BME280;19126;47.472;7.850;2024-03-22T10:40:47;72925.50;;;-146.25;39.00
32761;BME280;19126;47.472;7.850;2024-03-22T10:43:15;72875.38;;;-146.25;38.12
32761;BME280;19126;47.472;7.850;2024-03-22T10:45:43;72855.34;;;-146.25;36.69
32761;BME280;19126;47.472;7.850;2024-03-22T10:48:14;72823.28;;;-146.25;35.95
32761;BME280;19126;47.472;7.850;2024-03-22T10:50:44;72823.28;;;-146.25;37.18
32761;BME280;19126;47.472;7.850;2024-03-22T10:53:16;72817.28;;;-146.25;34.57
32761;BME280;19126;47.472;7.850;2024-03-22T10:55:48;72817.28;;;-146.25;35.04
32761;BME280;19126;47.472;7.850;2024-03-22T10:58:17;72805.25;;;-146.25;32.87
32761;BME280;19126;47.472;7.850;2024-03-22T11:00:45;72807.25;;;-146.25;33.04
32761;BME280;19126;47.472;7.850;2024-03-22T11:03:13;72833.31;;;-146.25;32.84
32761;BME280;19126;47.472;7.850;2024-03-22T11:05:47;72841.31;;;-146.25;33.01
32761;BME280;19126;47.472;7.850;2024-03-22T11:08:24;72857.34;;;-146.25;32.94
32761;BME280;19126;47.472;7.850;2024-03-22T11:10:52;72867.38;;;-146.25;32.41
32761;BME280;19126;47.472;7.850;2024-03-22T11:13:20;72877.41;;;-146.25;33.54
32761;BME280;19126;47.472;7.850;2024-03-22T11:15:48;72875.38;;;-146.25;33.79
32761;BME280;19126;47.472;7.850;2024-03-22T11:18:14;72871.38;;;-146.25;33.42
32761;BME280;19126;47.472;7.850;2024-03-22T11:20:42;72867.38;;;-146.25;33.14
32761;BME280;19126;47.472;7.850;2024-03-22T11:23:09;72847.34;;;-146.25;32.63
32761;BME280;19126;47.472;7.850;2024-03-22T11:25:36;72839.31;;;-146.25;33.24
32761;BME280;19126;47.472;7.850;2024-03-22T11:28:04;72831.31;;;-146.25;33.93
32761;BME280;19126;47.472;7.850;2024-03-22T11:30:34;72819.28;;;-146.25;33.04
32761;BME280;19126;47.472;7.850;2024-03-22T11:33:01;72815.28;;;-146.25;33.05
32761;BME280;19126;47.472;7.850;2024-03-22T11:35:28;72805.25;;;-146.25;33.32
32761;BME280;19126;47.472;7.850;2024-03-22T11:37:55;72807.25;;;-146.25;32.99
32761;BME280;19126;47.472;7.850;2024-03-22T11:40:25;72793.22;;;-146.25;33.67
32761;BME280;19126;47.472;7.850;2024-03-22T11:42:53;72793.22;;;-146.25;32.66
32761;BME280;19126;47.472;7.850;2024-03-22T11:45:22;72777.19;;;-146.25;33.57
32761;BME280;19126;47.472;7.850;2024-03-22T11:47:50;72797.25;;;-146.25;32.00
32761;BME280;19126;47.472;7.850;2024-03-22T11:50:17;72753.16;;;-146.25;32.73
32761;BME280;19126;47.472;7.850;2024-03-22T11:52:44;72723.09;;;-146.25;31.42
32761;BME280;19126;47.472;7.850;2024-03-22T11:55:14;72721.09;;;-146.25;32.03
32761;BME280;19126;47.472;7.850;2024-03-22T11:57:40;72735.13;;;-146.25;31.55
32761;BME280;19126;47.472;7.850;2024-03-22T12:00:09;72739.13;;;-146.25;31.44
32761;BME280;19126;47.472;7.850;2024-03-22T12:02:36;72739.13;;;-146.25;31.83
32761;BME280;19126;47.472;7.850;2024-03-22T12:05:06;72727.09;;;-146.25;32.13
32761;BME280;19126;47.472;7.850;2024-03-22T12:07:32;72711.06;;;-146.25;31.11
32761;BME280;19126;47.472;7.850;2024-03-22T12:09:59;72721.09;;;-146.25;30.37
32761;BME280;19126;47.472;7.850;2024-03-22T12:12:26;72737.13;;;-146.25;30.70
32761;BME280;19126;47.472;7.850;2024-03-22T12:14:53;72753.16;;;-146.25;29.98
32761;BME280;19126;47.472;7.850;2024-03-22T12:17:19;72763.19;;;-146.25;31.49
32761;BME280;19126;47.472;7.850;2024-03-22T12:19:47;72783.22;;;-146.25;30.09
32761;BME280;19126;47.472;7.850;2024-03-22T12:22:14;72801.25;;;-146.25;30.60
32761;BME280;19126;47.472;7.850;2024-03-22T12:24:41;72787.22;;;-146.25;31.36
32761;BME280;19126;47.472;7.850;2024-03-22T12:27:08;72769.19;;;-146.25;31.20
32761;BME280;19126;47.472;7.850;2024-03-22T12:29:35;72773.19;;;-146.25;30.35
32761;BME280;19126;47.472;7.850;2024-03-22T12:32:02;72785.22;;;-146.25;30.86
32761;BME280;19126;47.472;7.850;2024-03-22T12:34:30;72765.19;;;-146.25;31.37
32761;BME280;19126;47.472;7.850;2024-03-22T12:36:58;72757.16;;;-146.25;31.30
32761;BME280;19126;47.472;7.850;2024-03-22T12:39:27;72769.19;;;-146.25;31.03
32761;BME280;19126;47.472;7.850;2024-03-22T12:41:53;72767.19;;;-146.25;30.92